Weather observations for the past three days for
Montgomery, Dannelly Field
Imperial (Metric)
Date Time (cdt) Wind (mph) Vis. (mi.) Weather Sky Cond. Temperature (ºF) Relative Humidity Wind Chill (°F) Heat Index (°F) Pressure Precipitation (in)
Air Dwpt 6 hour altimeter (in) sea level (mb) 1 hr 3 hr 6 hr
Max. Min.
02 07:53 Calm 10.00 Fair CLR 80.1 73.9 82% 85 30.1 1019.0
02 06:53 Calm 10.00 Fair CLR 73 72 77 72 96% 30.09 1018.5
02 05:53 Calm 10.00 Fair CLR 73 72 96% 30.07 1018.0
02 04:53 Calm 10.00 Fair CLR 73 72 96% 30.06 1017.6
02 03:53 Calm 10.00 Fair CLR 73.9 72 94% 30.04 1016.9
02 02:53 Calm 10.00 Fair CLR 73.9 72 94% 30.04 1016.8
02 01:53 Calm 10.00 Fair CLR 75 72 90% 74 30.05 1017.0
02 00:53 SW 3 10.00 Fair CLR 77 72 89.1 75.9 85% 78 30.05 1017.0
01 23:53 Calm 10.00 Fair CLR 78.1 72 82% 80 30.04 1016.8
01 22:53 Calm 10.00 Fair CLR 81 72 74% 85 30.04 1017.0
01 21:53 SE 6 10.00 Fair CLR 81 72 74% 85 30.05 1017.2
01 20:53 E 3 10.00 Fair CLR 82 70 67% 86 30.03 1016.6
01 19:53 Calm 10.00 Fair CLR 84 70 63% 88 30 1015.6
01 18:53 E 7 10.00 Fair CLR 90 69.1 98.1 90 50% 95 30 1015.5
01 17:53 NE 10 10.00 Fair CLR 96.1 68 40% 101 30 1015.5
01 16:53 E 8 10.00 A Few Clouds FEW070 95 68 41% 100 30 1015.3
01 15:53 N 8 10.00 Fair CLR 97 69.1 40% 103 30 1015.5
01 14:53 Calm 10.00 Fair CLR 97 69.1 40% 103 30.02 1016.2
01 13:53 E 7 10.00 A Few Clouds FEW055 96.1 70 43% 103 30.05 1017.1
01 12:53 SE 7 10.00 Partly Cloudy SCT050 SCT085 95 71.1 96.1 73.9 46% 102 30.07 1017.8
01 11:53 E 8 10.00 Partly Cloudy SCT049 93.9 72 49% 102 30.09 1018.5
01 10:53 Calm 10.00 Fair CLR 91 72 54% 99 30.1 1018.9
01 09:53 N 8 10.00 Fair CLR 89.1 73.9 61% 98 30.11 1019.2
01 08:53 N 3 10.00 Fair CLR 84.9 75 72% 93 30.11 1019.2
01 07:53 Calm 10.00 Fair CLR 80.1 73.9 82% 85 30.11 1019.2
01 06:53 Calm 10.00 Fair CLR 73.9 72 78.1 72 94% 30.1 1019.0
01 05:53 Calm 10.00 Fair CLR 73.9 72 94% 30.07 1018.1
01 04:53 Calm 10.00 Fair CLR 73.9 72 94% 30.06 1017.7
01 03:53 Calm 10.00 Mostly Cloudy BKN060 75 73 94% 73 30.06 1017.5
01 02:53 Calm 10.00 Partly Cloudy SCT055 77 72 85% 78 30.05 1017.2
01 01:53 Calm 10.00 Fair CLR 75.9 72 88% 76 30.05 1017.1
01 00:53 Calm 10.00 Fair CLR 77 72 89.1 77 85% 78 30.05 1017.2
31 23:53 E 5 10.00 Fair CLR 78.1 72 82% 80 30.06 1017.6
31 22:53 E 3 10.00 Mostly Cloudy BKN060 80.1 72 76% 84 30.06 1017.6
31 21:53 E 5 10.00 Mostly Cloudy BKN060 82.9 71.1 67% 88 30.06 1017.6
31 20:53 E 3 10.00 Fair CLR 84 71.1 65% 89 30.05 1017.3
31 19:53 E 3 10.00 Fair CLR 84 71.1 65% 89 30.02 1016.3
31 18:53 E 7 10.00 Fair CLR 89.1 70 95 89.1 53% 94 30.02 1016.1
31 17:53 E 7 10.00 Fair CLR 93.9 69.1 44% 99 30.02 1016.1
31 16:53 E 8 10.00 Partly Cloudy SCT055 95 69.1 43% 101 30.02 1016.4
31 15:53 NE 6 10.00 Fair CLR 95 69.1 43% 101 30.04 1016.8
31 14:53 Vrbl 7 10.00 Partly Cloudy SCT055 91.9 69.1 47% 97 30.06 1017.5
31 13:53 Vrbl 7 10.00 A Few Clouds FEW048 93 71.1 49% 100 30.07 1017.9
31 12:53 NE 12 10.00 Fair CLR 91.9 71.1 93 75 51% 99 30.1 1018.8
31 11:53 E 6 G 16 10.00 Fair CLR 90 72 56% 97 30.11 1019.4
31 10:53 E 7 10.00 Fair CLR 89.1 72 57% 96 30.13 1019.8
31 09:53 Vrbl 5 10.00 Fair CLR 86 73 65% 93 30.13 1020.0
31 08:53 E 6 10.00 Fair CLR 82 73.9 77% 88 30.13 1019.9
31 07:53 E 7 10.00 Fair CLR 78.1 73 85% 81 30.12 1019.8
31 06:53 NE 6 10.00 Fair CLR 75 73 75.9 72 94% 73 30.11 1019.2
31 05:53 NE 3 10.00 Fair CLR 75 72 90% 74 30.09 1018.5
31 04:53 E 3 10.00 Fair CLR 73 72 96% 30.08 1018.3
31 03:53 E 6 10.00 Fair CLR 73 72 96% 30.07 1017.8
31 02:53 Calm 10.00 Fair CLR 73.9 72 94% 30.06 1017.6
31 01:53 E 3 10.00 Fair CLR 75 72 90% 74 30.07 1017.9
31 00:53 E 5 10.00 Fair CLR 75.9 72 86 75.9 88% 76 30.07 1018.0
30 23:53 E 3 10.00 Fair CLR 75.9 72 88% 76 30.07 1017.9
30 22:53 E 6 10.00 Fair CLR 77 72 85% 78 30.07 1017.9
30 21:53 E 6 10.00 Fair CLR 79 72 79% 82 30.07 1018.0
30 20:53 E 6 10.00 Fair CLR 79 72 79% 82 30.06 1017.7
30 19:53 E 7 10.00 Fair CLR 82.9 72 70% 88 30.05 1017.2
30 18:53 SE 3 10.00 Fair CLR 87.1 73 93.9 87.1 63% 95 30.03 1016.5
30 17:53 E 12 10.00 Fair CLR 91 70 50% 97 30.02 1016.3
30 16:53 E 10 10.00 Mostly Cloudy FEW043 BKN100 BKN110 91.9 71.1 51% 99 30.03 1016.5
30 15:53 E 8 10.00 A Few Clouds FEW080 91 70 50% 97 30.03 1016.7
30 14:53 E 8 10.00 Mostly Cloudy BKN055 93 72 50% 101 30.05 1017.4
30 13:53 Vrbl 5 10.00 Partly Cloudy SCT055 90 71.1 54% 96 30.07 1017.9
30 12:53 E 8 10.00 Partly Cloudy SCT042 90 72 91.9 73 56% 97 30.09 1018.7
30 11:53 SE 6 10.00 A Few Clouds FEW038 90 72 56% 97 30.12 1019.5
30 10:53 E 8 10.00 Fair CLR 87.1 72 61% 94 30.13 1020.0
30 09:53 E 7 10.00 Fair CLR 84.9 73.9 70% 92 30.13 1020.0
30 08:53 E 8 10.00 Fair CLR 81 73.9 79% 86 30.14 1020.4
Date Time (cdt) Wind (mph) Vis. (mi.) Weather Sky Cond. Air Dwpt Max. Min. Relative Humidity Wind Chill (°F) Heat Index (°F) altimeter (in) sea level (mb) 1 hr 3 hr 6 hr
6 hour
Temperature (ºF) Pressure Precipitation (in)